Time;durP1;ratioP1;P1;durP2;ratioP2;P2;SDS_P1;SDS_P2;PMS_P1;PMS_P2;Temp;Humidity;BMP_temperature;BMP_pressure;BME280_temperature;BME280_humidity;BME280_pressure;Samples;Min_cycle;Max_cycle;Signal;HPM_P1;HPM_P2
2023/04/08 00:02:37;;;;;;;40.17;23.70;;;5.60;99.90;;;;;;2602621;54;19938;31
2023/04/08 00:05:14;;;;;;;34.70;21.13;;;5.60;99.90;;;;;;2622142;47;19965;31
2023/04/08 00:07:50;;;;;;;41.65;23.27;;;5.60;99.90;;;;;;2621952;46;20818;31
2023/04/08 00:10:26;;;;;;;42.13;23.70;;;5.60;99.90;;;;;;2603712;54;20918;31
2023/04/08 00:13:02;;;;;;;31.23;19.83;;;5.60;99.90;;;;;;2603646;54;20259;31
2023/04/08 00:15:38;;;;;;;35.97;21.30;;;5.60;99.90;;;;;;2622366;46;20068;31
2023/04/08 00:18:17;;;;;;;24.02;16.63;;;5.60;99.90;;;;;;2603699;54;20065;31
2023/04/08 00:20:56;;;;;;;28.13;19.20;;;5.70;99.90;;;;;;2604073;54;20061;31
2023/04/08 00:23:39;;;;;;;31.80;19.75;;;5.70;99.90;;;;;;2603609;54;20757;31
2023/04/08 00:26:15;;;;;;;38.95;25.85;;;5.70;99.90;;;;;;2621759;46;20855;31
2023/04/08 00:28:49;;;;;;;;;;;5.70;99.90;;;;;;2604024;54;20772;31
2023/04/08 00:31:26;;;;;;;25.23;15.85;;;5.70;99.90;;;;;;2603605;54;20767;31
2023/04/08 00:34:07;;;;;;;26.77;18.23;;;5.70;99.90;;;;;;2603591;54;20886;31
2023/04/08 00:36:44;;;;;;;37.08;21.85;;;5.70;99.90;;;;;;2622431;46;20034;31
2023/04/08 00:39:19;;;;;;;37.40;21.67;;;5.70;99.90;;;;;;2603507;54;20034;31
2023/04/08 00:41:56;;;;;;;34.33;21.63;;;5.70;99.90;;;;;;2603710;54;20736;31
2023/04/08 00:44:32;;;;;;;32.22;20.40;;;5.70;99.90;;;;;;2602817;54;20026;31
2023/04/08 00:47:09;;;;;;;33.65;20.73;;;5.70;99.90;;;;;;2622424;46;20855;31
2023/04/08 00:49:48;;;;;;;27.77;18.10;;;5.70;99.90;;;;;;2603617;54;20030;31
2023/04/08 00:52:28;;;;;;;36.03;20.65;;;5.70;99.90;;;;;;2603736;54;20724;31
2023/04/08 00:55:04;;;;;;;33.08;20.27;;;5.80;99.90;;;;;;2603640;54;20029;31
2023/04/08 00:57:39;;;;;;;32.90;21.17;;;5.80;99.90;;;;;;2603541;54;20033;31
2023/04/08 01:00:17;;;;;;;33.92;20.25;;;5.70;99.90;;;;;;2603564;54;20580;31
2023/04/08 01:03:11;;;;;;;29.40;18.67;;;5.70;99.90;;;;;;2603449;54;20868;31
2023/04/08 01:05:53;;;;;;;30.05;19.35;;;5.80;99.90;;;;;;2603640;54;20891;31
2023/04/08 01:08:30;;;;;;;28.60;18.48;;;5.80;99.90;;;;;;2603528;54;20022;31
2023/04/08 01:11:05;;;;;;;31.70;20.25;;;5.80;99.90;;;;;;2602746;54;20875;31
2023/04/08 01:13:42;;;;;;;33.30;19.60;;;5.80;99.90;;;;;;2603622;54;20824;31
2023/04/08 01:16:18;;;;;;;30.77;18.30;;;5.80;99.90;;;;;;2603321;54;20573;31
2023/04/08 01:18:54;;;;;;;32.78;20.77;;;5.80;99.90;;;;;;2603500;54;20760;31
2023/04/08 01:21:35;;;;;;;37.33;22.67;;;5.80;99.90;;;;;;2621962;46;20057;31
2023/04/08 01:24:16;;;;;;;35.53;22.60;;;5.80;99.90;;;;;;2603529;54;20029;31
2023/04/08 01:26:56;;;;;;;41.42;24.60;;;5.80;99.90;;;;;;2603329;54;20878;31
2023/04/08 01:29:32;;;;;;;39.72;23.27;;;5.80;99.90;;;;;;2603699;54;20836;31
2023/04/08 01:32:07;;;;;;;42.20;23.90;;;5.90;99.90;;;;;;2603556;54;20096;31
2023/04/08 01:34:46;;;;;;;;;;;5.80;99.90;;;;;;2602987;54;20026;31
2023/04/08 01:37:21;;;;;;;38.65;23.55;;;5.80;99.90;;;;;;2602621;54;19969;31
2023/04/08 01:40:05;;;;;;;39.60;22.83;;;5.80;99.90;;;;;;2603612;54;20615;31
2023/04/08 01:42:47;;;;;;;38.30;20.95;;;5.70;99.90;;;;;;2602541;54;19942;31
2023/04/08 01:45:27;;;;;;;39.95;23.98;;;5.60;99.90;;;;;;2603503;54;20051;31
2023/04/08 01:48:04;;;;;;;38.83;21.90;;;5.50;99.90;;;;;;2603446;54;20042;31
2023/04/08 01:50:39;;;;;;;;;;;5.40;99.90;;;;;;2603341;54;20033;31
2023/04/08 01:53:15;;;;;;;29.83;19.08;;;5.30;99.90;;;;;;2622120;46;20716;31
2023/04/08 01:55:52;;;;;;;33.42;20.20;;;5.30;99.90;;;;;;2603254;54;20034;31
2023/04/08 01:58:30;;;;;;;32.95;20.95;;;5.20;99.90;;;;;;2603454;54;20892;31
2023/04/08 02:01:07;;;;;;;36.13;20.55;;;5.20;99.90;;;;;;2603540;54;20872;31
2023/04/08 02:03:44;;;;;;;34.65;21.00;;;5.20;99.90;;;;;;2603223;54;20573;31
2023/04/08 02:06:21;;;;;;;31.77;19.87;;;5.10;99.90;;;;;;2603124;54;20748;31
2023/04/08 02:08:56;;;;;;;30.85;20.00;;;5.00;99.90;;;;;;2603377;54;20899;31
2023/04/08 02:11:31;;;;;;;31.37;20.57;;;5.10;99.90;;;;;;2603174;54;20085;31
2023/04/08 02:14:09;;;;;;;26.85;18.00;;;5.00;99.90;;;;;;2603119;54;21057;31
2023/04/08 02:16:47;;;;;;;28.23;18.63;;;5.00;99.90;;;;;;2621842;46;20030;31
2023/04/08 02:19:22;;;;;;;29.43;18.33;;;5.00;99.90;;;;;;2701799;39;22422;31
2023/04/08 02:21:59;;;;;;;28.85;17.95;;;4.90;99.90;;;;;;2602308;54;20041;31
2023/04/08 02:24:36;;;;;;;29.80;19.08;;;4.80;99.90;;;;;;2603285;54;20599;31
2023/04/08 02:27:11;;;;;;;26.20;17.63;;;4.80;99.90;;;;;;2603140;54;20736;31
2023/04/08 02:29:50;;;;;;;24.10;15.77;;;4.80;99.90;;;;;;2603197;54;20031;31
2023/04/08 02:32:30;;;;;;;27.50;16.85;;;4.80;99.90;;;;;;2603486;54;20022;31
2023/04/08 02:35:07;;;;;;;22.30;15.52;;;4.80;99.90;;;;;;2603075;54;20880;31
2023/04/08 02:37:43;;;;;;;24.05;15.50;;;4.80;99.90;;;;;;2773364;31;20608;31
2023/04/08 02:40:28;;;;;;;26.38;15.98;;;4.70;99.90;;;;;;2603169;54;20124;31
2023/04/08 02:43:07;;;;;;;22.75;15.57;;;4.80;99.90;;;;;;2603276;54;20028;31
2023/04/08 02:45:45;;;;;;;24.85;16.08;;;4.70;99.90;;;;;;2603117;54;20030;31
2023/04/08 02:48:21;;;;;;;22.10;14.65;;;4.70;99.90;;;;;;2602513;54;20019;31
2023/04/08 02:50:56;;;;;;;22.48;14.93;;;4.70;99.90;;;;;;2621621;46;20031;31
2023/04/08 02:53:31;;;;;;;21.27;15.10;;;4.80;99.90;;;;;;2621445;46;20057;31
2023/04/08 02:56:09;;;;;;;22.50;14.43;;;4.70;99.90;;;;;;2603173;54;20120;31
2023/04/08 02:58:51;;;;;;;21.93;15.60;;;4.70;99.90;;;;;;2603080;54;20057;31
2023/04/08 03:01:30;;;;;;;22.98;15.45;;;4.70;99.90;;;;;;2603055;54;20892;31
2023/04/08 03:04:07;;;;;;;20.83;14.35;;;4.70;99.90;;;;;;2603265;54;20042;31
2023/04/08 03:06:44;;;;;;;23.48;15.88;;;4.70;99.90;;;;;;2603010;54;20029;31
2023/04/08 03:09:20;;;;;;;22.50;15.10;;;4.70;99.90;;;;;;2602466;54;20037;31
2023/04/08 03:11:59;;;;;;;24.10;15.50;;;4.70;99.90;;;;;;2602940;54;20904;31
2023/04/08 03:14:37;;;;;;;22.95;15.80;;;4.70;99.90;;;;;;2603250;54;20847;31
2023/04/08 03:17:15;;;;;;;23.90;15.50;;;4.70;99.90;;;;;;2611286;47;20035;31
2023/04/08 03:19:50;;;;;;;22.63;14.68;;;4.70;99.90;;;;;;2612655;47;19941;31
2023/04/08 03:22:26;;;;;;;24.40;15.45;;;4.70;99.90;;;;;;2602673;54;21037;31
2023/04/08 03:25:04;;;;;;;21.27;15.23;;;4.70;99.90;;;;;;2602922;54;20859;31
2023/04/08 03:27:40;;;;;;;20.17;14.02;;;4.60;99.90;;;;;;2621341;47;19931;31
2023/04/08 03:30:16;;;;;;;24.10;16.77;;;4.60;99.90;;;;;;2602293;54;20546;31
2023/04/08 03:32:54;;;;;;;26.25;17.35;;;4.60;99.90;;;;;;2602372;54;20275;31
2023/04/08 03:35:29;;;;;;;23.85;16.60;;;4.60;99.90;;;;;;2603044;54;25032;31
2023/04/08 03:38:04;;;;;;;22.98;14.68;;;4.60;99.90;;;;;;2603185;54;20066;31
2023/04/08 03:40:41;;;;;;;22.47;16.07;;;4.60;99.90;;;;;;2621973;47;20876;31
2023/04/08 03:43:18;;;;;;;24.33;16.57;;;4.60;99.90;;;;;;2603766;54;20081;31
2023/04/08 03:45:52;;;;;;;;;;;4.60;99.90;;;;;;2603965;54;20052;31
2023/04/08 03:48:30;;;;;;;23.80;16.65;;;4.60;99.90;;;;;;2603602;54;20749;31
2023/04/08 03:51:07;;;;;;;21.58;15.18;;;4.60;99.90;;;;;;2622181;46;20034;31
2023/04/08 03:53:45;;;;;;;22.30;15.30;;;4.60;99.90;;;;;;2622257;46;20072;31
2023/04/08 03:56:21;;;;;;;22.50;16.60;;;4.60;99.90;;;;;;2622478;46;20827;31
2023/04/08 03:58:55;;;;;;;;;;;4.60;99.90;;;;;;2621986;46;20052;31
2023/04/08 04:01:31;;;;;;;23.47;15.83;;;4.60;99.90;;;;;;2603692;54;20705;31
2023/04/08 04:04:10;;;;;;;23.53;15.97;;;4.60;99.90;;;;;;2603671;54;20112;31
2023/04/08 04:06:45;;;;;;;24.75;16.42;;;4.60;99.90;;;;;;2603601;54;20038;31
2023/04/08 04:11:58;;;;;;;22.88;15.38;;;4.50;99.90;;;;;;2603875;54;20275;31
2023/04/08 04:14:34;;;;;;;19.10;13.80;;;4.50;99.90;;;;;;2603629;54;20030;31
2023/04/08 04:17:10;;;;;;;20.40;14.18;;;4.50;99.90;;;;;;2622106;46;20892;31
2023/04/08 04:19:49;;;;;;;20.30;13.65;;;4.50;99.90;;;;;;2603698;54;20068;31
2023/04/08 04:22:27;;;;;;;22.75;15.45;;;4.40;99.90;;;;;;2602892;54;20108;31
2023/04/08 04:25:03;;;;;;;22.38;13.65;;;4.40;99.90;;;;;;2603520;54;20859;31
2023/04/08 04:27:38;;;;;;;20.88;13.93;;;4.40;99.90;;;;;;2603835;54;20034;31
2023/04/08 04:30:14;;;;;;;22.17;15.65;;;4.40;99.90;;;;;;2602826;54;19942;31
2023/04/08 04:32:52;;;;;;;21.95;15.35;;;4.40;99.90;;;;;;2602938;54;20038;31
2023/04/08 04:35:31;;;;;;;21.17;15.45;;;4.40;99.90;;;;;;2603565;54;20906;31
2023/04/08 04:38:11;;;;;;;23.60;15.65;;;4.40;99.90;;;;;;2603812;54;20026;31
2023/04/08 04:40:46;;;;;;;25.85;16.92;;;4.40;99.90;;;;;;2603575;54;20833;31
2023/04/08 04:43:22;;;;;;;25.83;16.77;;;4.40;99.90;;;;;;2603605;54;20038;31
2023/04/08 04:45:58;;;;;;;23.40;15.77;;;4.30;99.90;;;;;;2621733;46;20167;31
2023/04/08 04:48:33;;;;;;;22.58;16.20;;;4.40;99.90;;;;;;2602752;54;20034;31
2023/04/08 04:51:14;;;;;;;22.58;16.08;;;4.40;99.90;;;;;;2603018;54;20085;31
2023/04/08 04:53:49;;;;;;;23.95;15.90;;;4.40;99.90;;;;;;2622167;46;19935;31
2023/04/08 04:56:47;;;;;;;23.75;15.38;;;4.40;99.90;;;;;;2602774;54;20922;31
2023/04/08 04:59:24;;;;;;;21.30;14.15;;;4.40;99.90;;;;;;2603447;54;20026;31
2023/04/08 05:01:59;;;;;;;22.45;15.32;;;4.40;99.90;;;;;;2622039;46;20026;31
2023/04/08 05:04:38;;;;;;;20.70;14.90;;;4.40;99.90;;;;;;2602761;54;20914;31
2023/04/08 05:07:16;;;;;;;20.80;14.03;;;4.40;99.90;;;;;;2603136;54;20030;31
2023/04/08 05:09:52;;;;;;;20.30;14.68;;;4.40;99.90;;;;;;2603489;54;20246;31
2023/04/08 05:12:28;;;;;;;19.75;13.40;;;4.30;99.90;;;;;;2603642;54;20026;31
2023/04/08 05:15:05;;;;;;;19.42;13.32;;;4.40;99.90;;;;;;2603386;54;25055;31
2023/04/08 05:17:45;;;;;;;19.77;14.25;;;4.30;99.90;;;;;;2621996;46;20089;31
2023/04/08 05:20:21;;;;;;;21.98;14.45;;;4.30;99.90;;;;;;2603524;54;20049;31
2023/04/08 05:23:00;;;;;;;20.45;14.85;;;4.30;99.90;;;;;;2603404;54;20774;31
2023/04/08 05:25:35;;;;;;;24.08;15.05;;;4.30;99.90;;;;;;2603148;54;20081;31
2023/04/08 05:28:12;;;;;;;26.45;17.58;;;4.30;99.90;;;;;;2603355;54;20056;31
2023/04/08 05:30:52;;;;;;;25.98;18.02;;;4.30;99.90;;;;;;2720504;39;20477;31
2023/04/08 05:33:27;;;;;;;25.48;17.02;;;4.30;99.90;;;;;;2603490;54;20851;31
2023/04/08 05:36:02;;;;;;;24.25;16.60;;;4.30;99.90;;;;;;2603287;54;20915;31
2023/04/08 05:38:43;;;;;;;19.75;15.20;;;4.40;99.90;;;;;;2603460;54;20030;31
2023/04/08 05:41:18;;;;;;;21.55;15.85;;;4.40;99.90;;;;;;2621626;46;20892;31
2023/04/08 05:43:53;;;;;;;20.77;15.20;;;4.40;99.90;;;;;;2603661;54;20077;31
2023/04/08 05:46:30;;;;;;;23.75;16.90;;;4.40;99.90;;;;;;2603398;54;20116;31
2023/04/08 05:49:05;;;;;;;22.70;16.50;;;4.40;99.90;;;;;;2602756;54;20037;31
2023/04/08 05:51:42;;;;;;;21.80;16.10;;;4.40;99.90;;;;;;2603560;54;20144;31
2023/04/08 05:54:22;;;;;;;25.60;17.30;;;4.40;99.90;;;;;;2602655;54;20871;31
2023/04/08 05:57:02;;;;;;;24.77;18.00;;;4.50;99.90;;;;;;2603287;54;20049;31
2023/04/08 05:59:50;;;;;;;24.15;17.63;;;4.50;99.90;;;;;;2603489;54;20030;31
2023/04/08 06:02:26;;;;;;;24.80;17.48;;;4.50;99.90;;;;;;2603295;54;20068;31
2023/04/08 06:05:06;;;;;;;25.10;17.80;;;4.50;99.90;;;;;;2701763;39;20520;31
2023/04/08 06:07:43;;;;;;;27.38;18.73;;;4.50;99.90;;;;;;2603434;54;20859;31
2023/04/08 06:10:22;;;;;;;28.33;18.80;;;4.60;99.90;;;;;;2603208;54;20037;31
2023/04/08 06:12:57;;;;;;;24.92;17.77;;;4.50;99.90;;;;;;2603378;54;20828;31
2023/04/08 06:15:34;;;;;;;25.10;17.60;;;4.60;99.90;;;;;;2602775;54;20558;31
2023/04/08 06:18:09;;;;;;;26.17;18.63;;;4.60;99.90;;;;;;2602618;54;20034;31
2023/04/08 06:20:45;;;;;;;26.57;18.33;;;4.60;99.90;;;;;;2620694;46;20092;31
2023/04/08 06:23:21;;;;;;;26.50;18.45;;;4.60;99.90;;;;;;2603157;54;20964;31
2023/04/08 06:25:58;;;;;;;;;;;4.60;99.90;;;;;;2602838;54;20036;31
2023/04/08 06:28:34;;;;;;;24.40;16.95;;;4.60;99.90;;;;;;2603201;54;19942;31
2023/04/08 06:31:10;;;;;;;27.85;18.60;;;4.60;99.90;;;;;;2701907;39;20559;31
2023/04/08 06:33:47;;;;;;;22.33;15.93;;;4.70;99.90;;;;;;2621742;46;20030;31
2023/04/08 06:36:22;;;;;;;23.80;17.25;;;4.70;99.90;;;;;;2621615;46;20030;31
2023/04/08 06:38:58;;;;;;;25.20;15.73;;;5.00;99.90;;;;;;2602845;54;20037;31
2023/04/08 06:41:37;;;;;;;21.50;15.85;;;5.10;99.90;;;;;;2603374;54;20794;31
2023/04/08 06:44:28;;;;;;;20.90;14.70;;;5.20;99.90;;;;;;2621703;46;20035;31
2023/04/08 06:47:06;;;;;;;21.33;14.55;;;5.20;99.90;;;;;;2602965;54;20026;31
2023/04/08 06:49:43;;;;;;;30.63;18.98;;;5.30;99.90;;;;;;2603181;54;20026;31
2023/04/08 06:52:18;;;;;;;;;;;5.40;99.90;;;;;;2622009;46;20898;31
2023/04/08 06:54:54;;;;;;;21.90;15.38;;;5.60;99.90;;;;;;2603016;54;19934;31
2023/04/08 06:57:33;;;;;;;21.02;15.18;;;5.70;99.90;;;;;;2603084;54;19956;31
2023/04/08 07:00:12;;;;;;;21.03;15.53;;;5.90;99.90;;;;;;2603291;54;20031;31
2023/04/08 07:02:50;;;;;;;21.15;15.05;;;6.00;99.90;;;;;;2621933;46;20883;31
2023/04/08 07:05:28;;;;;;;20.85;14.85;;;6.00;99.90;;;;;;2714075;39;20564;31
2023/04/08 07:08:05;;;;;;;21.35;15.88;;;5.90;99.90;;;;;;2602925;54;20023;31
2023/04/08 07:10:43;;;;;;;20.53;14.60;;;6.00;99.90;;;;;;2602172;54;20871;31
2023/04/08 07:13:25;;;;;;;21.15;15.15;;;6.10;99.90;;;;;;2602895;54;20027;31
2023/04/08 07:16:01;;;;;;;20.17;14.57;;;6.10;99.90;;;;;;2603826;54;20031;31
2023/04/08 07:18:43;;;;;;;18.35;14.15;;;5.90;99.90;;;;;;2610464;46;20026;31
2023/04/08 07:21:21;;;;;;;21.30;16.02;;;5.90;99.90;;;;;;2603803;54;20737;31
2023/04/08 07:24:01;;;;;;;22.00;14.93;;;5.90;99.90;;;;;;2605127;46;20038;31
2023/04/08 07:26:40;;;;;;;20.88;14.90;;;6.00;99.90;;;;;;2603547;54;20879;31
2023/04/08 07:29:23;;;;;;;18.13;13.82;;;6.00;99.90;;;;;;2603722;54;20624;31
2023/04/08 07:32:07;;;;;;;19.70;13.70;;;6.00;99.90;;;;;;2622274;46;20853;31
2023/04/08 07:34:46;;;;;;;18.70;13.85;;;6.00;99.90;;;;;;2603669;54;20030;31
2023/04/08 07:37:21;;;;;;;18.30;14.15;;;6.00;99.90;;;;;;2603006;54;20866;31
2023/04/08 07:40:12;;;;;;;19.95;15.43;;;6.00;99.90;;;;;;2603871;54;20030;31
2023/04/08 07:42:48;;;;;;;20.90;16.03;;;5.90;99.90;;;;;;2603833;54;20022;31
2023/04/08 07:45:29;;;;;;;19.67;15.00;;;5.90;99.90;;;;;;2603684;54;20078;31
2023/04/08 07:48:06;;;;;;;19.05;14.32;;;5.90;99.90;;;;;;2603685;54;20026;31
2023/04/08 07:50:44;;;;;;;19.80;14.32;;;5.90;99.90;;;;;;2603093;54;20886;31
2023/04/08 07:53:42;;;;;;;17.63;13.25;;;5.90;99.90;;;;;;2622185;46;20028;31
2023/04/08 07:56:21;;;;;;;17.43;12.63;;;5.90;99.90;;;;;;2603801;54;20538;31
2023/04/08 07:58:56;;;;;;;17.13;12.65;;;5.90;99.90;;;;;;2603823;54;21074;31
2023/04/08 08:01:35;;;;;;;17.75;13.35;;;6.00;99.90;;;;;;2621902;46;20951;31
2023/04/08 08:04:12;;;;;;;16.25;12.35;;;6.00;99.90;;;;;;2622396;46;20026;31
2023/04/08 08:06:50;;;;;;;17.07;12.03;;;6.10;99.90;;;;;;2603656;54;20022;31
2023/04/08 08:09:28;;;;;;;16.65;12.63;;;6.10;99.90;;;;;;2603870;54;19941;31
2023/04/08 08:12:10;;;;;;;19.05;12.80;;;6.20;99.90;;;;;;2602787;54;20033;31
2023/04/08 08:14:46;;;;;;;17.65;12.35;;;6.30;99.90;;;;;;2622077;46;20131;31
2023/04/08 08:17:28;;;;;;;;;;;6.40;99.90;;;;;;2603874;54;20054;31
2023/04/08 08:20:06;;;;;;;15.23;10.95;;;6.50;99.90;;;;;;2622225;46;20036;31
2023/04/08 08:22:44;;;;;;;14.13;11.05;;;6.50;99.90;;;;;;2603744;54;20023;31
2023/04/08 08:25:32;;;;;;;14.60;10.55;;;6.60;99.90;;;;;;2603505;54;20030;31
2023/04/08 08:28:10;;;;;;;16.30;12.00;;;6.70;99.90;;;;;;2603886;54;21300;31
2023/04/08 08:30:44;;;;;;;14.77;11.65;;;6.70;99.90;;;;;;2702013;39;20500;31
2023/04/08 08:33:23;;;;;;;17.30;12.70;;;6.70;99.90;;;;;;2603964;54;20018;31
2023/04/08 08:36:00;;;;;;;12.68;10.15;;;6.70;99.90;;;;;;2603855;54;20033;31
2023/04/08 08:38:37;;;;;;;14.88;11.00;;;6.70;99.90;;;;;;2603591;54;20889;31
2023/04/08 08:41:14;;;;;;;15.48;10.90;;;6.80;99.90;;;;;;2603765;54;20023;31
2023/04/08 08:43:49;;;;;;;16.55;11.70;;;6.70;99.90;;;;;;2603688;54;20045;31
2023/04/08 08:46:28;;;;;;;16.80;12.43;;;6.70;99.90;;;;;;2621607;46;20060;31
2023/04/08 08:49:08;;;;;;;15.57;12.00;;;6.70;99.90;;;;;;2622224;46;20018;31
2023/04/08 08:51:49;;;;;;;17.40;12.20;;;6.70;99.90;;;;;;2603139;54;20104;31
2023/04/08 08:54:25;;;;;;;13.85;11.70;;;6.80;99.90;;;;;;2603475;54;20757;31
2023/04/08 08:57:01;;;;;;;16.80;12.23;;;6.70;99.90;;;;;;2603605;54;20042;31
2023/04/08 08:59:37;;;;;;;17.03;13.13;;;6.70;99.90;;;;;;2603456;54;20085;31
2023/04/08 09:02:28;;;;;;;17.90;13.05;;;6.80;99.90;;;;;;2602905;54;20887;31
2023/04/08 09:05:08;;;;;;;14.80;12.70;;;6.70;99.90;;;;;;2603492;54;20150;31
2023/04/08 09:07:46;;;;;;;17.27;12.98;;;6.70;99.90;;;;;;2603468;54;20828;31
2023/04/08 09:10:29;;;;;;;17.13;13.15;;;6.70;99.90;;;;;;2603344;54;20031;31
2023/04/08 09:13:05;;;;;;;18.55;13.48;;;6.70;99.90;;;;;;2603528;54;20030;31
2023/04/08 09:15:45;;;;;;;20.77;13.07;;;6.70;99.90;;;;;;2603305;54;20026;31
2023/04/08 09:18:24;;;;;;;16.67;13.50;;;6.70;99.90;;;;;;2621504;46;20085;31
2023/04/08 09:21:05;;;;;;;17.52;13.73;;;6.70;99.90;;;;;;2603407;54;20866;31
2023/04/08 09:23:41;;;;;;;17.60;13.15;;;6.70;99.90;;;;;;2603692;54;20030;31
2023/04/08 09:26:18;;;;;;;18.13;12.93;;;6.70;99.90;;;;;;2603438;54;20064;31
2023/04/08 09:29:03;;;;;;;16.85;13.65;;;6.70;99.90;;;;;;2603334;54;20920;31
2023/04/08 09:31:58;;;;;;;16.83;13.18;;;6.80;99.90;;;;;;2603403;54;20034;31
2023/04/08 09:34:34;;;;;;;16.07;12.67;;;6.80;99.90;;;;;;2603598;54;20030;31
2023/04/08 09:37:12;;;;;;;15.80;12.80;;;6.90;99.90;;;;;;2603174;54;20253;31
2023/04/08 09:39:49;;;;;;;16.00;12.35;;;7.00;99.90;;;;;;2603448;54;20890;31
2023/04/08 09:42:25;;;;;;;17.15;12.95;;;7.00;99.90;;;;;;2622223;46;20033;31
2023/04/08 09:45:00;;;;;;;18.52;12.68;;;7.10;99.90;;;;;;2603243;54;25064;31
2023/04/08 09:47:36;;;;;;;17.70;13.25;;;7.20;99.90;;;;;;2603456;54;20901;31
2023/04/08 09:50:12;;;;;;;18.00;14.05;;;7.30;99.90;;;;;;2603301;54;20859;31
2023/04/08 09:52:57;;;;;;;17.70;13.10;;;7.30;99.90;;;;;;2603517;54;20241;31
2023/04/08 09:55:35;;;;;;;17.30;13.18;;;7.50;99.90;;;;;;2622059;46;20029;31
2023/04/08 09:58:13;;;;;;;17.13;12.77;;;7.50;99.90;;;;;;2603460;54;20845;31
2023/04/08 10:00:55;;;;;;;15.68;12.27;;;7.60;99.90;;;;;;2603158;54;20111;31
2023/04/08 10:03:32;;;;;;;14.07;11.02;;;7.70;99.90;;;;;;2603595;54;20057;31
2023/04/08 10:06:09;;;;;;;16.15;12.10;;;7.70;99.90;;;;;;2603521;54;20748;31
2023/04/08 10:08:48;;;;;;;19.52;14.18;;;7.80;99.90;;;;;;2603243;54;20093;31
2023/04/08 10:11:24;;;;;;;33.50;19.95;;;7.70;99.90;;;;;;2603368;54;20160;31
2023/04/08 10:14:00;;;;;;;22.43;15.93;;;7.80;99.90;;;;;;2603400;54;20030;31
2023/04/08 10:16:37;;;;;;;27.67;19.90;;;7.70;99.90;;;;;;2603258;54;20818;31
2023/04/08 10:19:41;;;;;;;16.38;12.95;;;7.80;99.90;;;;;;2602662;54;20848;31
2023/04/08 10:22:47;;;;;;;19.05;13.35;;;7.80;99.90;;;;;;2603440;54;20630;31
2023/04/08 10:25:24;;;;;;;15.95;12.60;;;7.80;99.90;;;;;;2603460;54;20026;31
2023/04/08 10:28:02;;;;;;;22.25;14.18;;;7.80;99.90;;;;;;2603201;54;20807;31
2023/04/08 10:30:46;;;;;;;18.05;14.00;;;7.80;99.90;;;;;;2621479;46;19976;31
2023/04/08 10:33:25;;;;;;;21.33;15.07;;;7.80;99.90;;;;;;2603608;54;21766;31
2023/04/08 10:36:03;;;;;;;19.23;14.55;;;7.70;99.90;;;;;;2603233;54;20268;31
2023/04/08 10:38:38;;;;;;;14.73;12.68;;;7.70;99.90;;;;;;2613170;46;20030;31
2023/04/08 10:41:20;;;;;;;20.35;15.93;;;7.70;99.90;;;;;;2602854;54;20139;31
2023/04/08 10:43:59;;;;;;;18.90;14.57;;;7.70;99.90;;;;;;2603269;54;20121;31
2023/04/08 10:46:40;;;;;;;17.02;12.75;;;7.80;99.90;;;;;;2603254;54;20099;31
2023/04/08 10:49:16;;;;;;;14.13;11.43;;;7.80;99.90;;;;;;2603318;54;20046;31
2023/04/08 10:51:52;;;;;;;18.48;12.52;;;7.90;99.90;;;;;;2621872;46;19945;31
2023/04/08 10:54:30;;;;;;;18.85;13.25;;;7.90;99.90;;;;;;2603193;54;20038;31
2023/04/08 10:57:07;;;;;;;14.30;11.43;;;8.00;99.90;;;;;;2720262;39;20492;31
2023/04/08 10:59:49;;;;;;;14.07;11.38;;;8.00;99.90;;;;;;2603160;54;20030;31
2023/04/08 11:02:25;;;;;;;15.25;12.60;;;8.00;99.90;;;;;;2603224;54;20866;31
2023/04/08 11:05:02;;;;;;;14.95;11.52;;;8.20;99.90;;;;;;2603348;54;20128;31
2023/04/08 11:07:44;;;;;;;14.25;10.63;;;8.30;99.90;;;;;;2700922;39;21479;31
2023/04/08 11:10:21;;;;;;;17.55;12.65;;;8.40;99.90;;;;;;2621695;47;20022;31
2023/04/08 11:12:58;;;;;;;14.32;12.10;;;8.50;99.90;;;;;;2603059;54;20124;31
2023/04/08 11:15:38;;;;;;;18.17;12.85;;;8.50;99.90;;;;;;2602941;54;20893;31
2023/04/08 11:18:13;;;;;;;16.75;12.45;;;8.50;99.90;;;;;;2621435;47;20831;31
2023/04/08 11:20:52;;;;;;;15.98;12.05;;;8.50;99.90;;;;;;2602828;54;20042;31
2023/04/08 11:23:30;;;;;;;16.40;12.40;;;8.60;99.90;;;;;;2609826;47;20961;31
2023/04/08 11:26:06;;;;;;;16.73;13.38;;;8.60;99.90;;;;;;2602623;54;20022;31
2023/04/08 11:28:45;;;;;;;20.70;13.53;;;8.60;99.90;;;;;;2603265;54;19957;31
2023/04/08 11:31:25;;;;;;;15.95;12.32;;;8.70;99.90;;;;;;2603225;54;20031;31
2023/04/08 11:34:00;;;;;;;17.35;12.40;;;8.90;99.90;;;;;;2603182;54;20136;31
2023/04/08 11:36:39;;;;;;;16.15;12.90;;;9.00;99.90;;;;;;2773287;31;21262;31
2023/04/08 11:39:17;;;;;;;16.63;13.07;;;9.10;99.90;;;;;;2602935;54;20254;31
2023/04/08 11:41:54;;;;;;;15.63;12.50;;;9.20;99.90;;;;;;2603143;54;20901;31
2023/04/08 11:44:35;;;;;;;20.83;13.32;;;9.30;99.90;;;;;;2602211;54;20867;31
2023/04/08 11:47:17;;;;;;;16.53;12.70;;;9.40;99.90;;;;;;2621614;47;20023;31
2023/04/08 11:49:55;;;;;;;15.57;12.05;;;9.50;99.90;;;;;;2602157;54;20755;31
2023/04/08 11:52:47;;;;;;;13.93;11.65;;;9.50;99.90;;;;;;2602955;54;20081;31
2023/04/08 11:55:28;;;;;;;18.58;11.70;;;9.60;99.90;;;;;;2621551;47;20031;31
2023/04/08 11:58:08;;;;;;;11.95;9.98;;;9.60;99.90;;;;;;2602929;54;20053;31
2023/04/08 12:00:46;;;;;;;12.80;10.60;;;9.70;99.90;;;;;;2603384;54;20880;31
2023/04/08 12:03:27;;;;;;;12.43;9.57;;;9.70;99.90;;;;;;2622265;46;20663;31
2023/04/08 12:06:03;;;;;;;14.65;10.98;;;9.80;99.90;;;;;;2702198;39;20512;31
2023/04/08 12:08:39;;;;;;;12.17;9.47;;;10.00;99.90;;;;;;2603771;54;20736;31
2023/04/08 12:11:15;;;;;;;12.80;10.00;;;10.00;99.90;;;;;;2603860;54;20048;31
2023/04/08 12:13:55;;;;;;;11.57;9.25;;;10.20;99.90;;;;;;2603689;54;20315;31
2023/04/08 12:16:31;;;;;;;11.32;9.52;;;10.40;99.90;;;;;;2603771;54;20848;31
2023/04/08 12:19:08;;;;;;;;;;;10.50;99.90;;;;;;2604259;54;20104;31
2023/04/08 12:21:44;;;;;;;11.55;9.65;;;10.70;99.90;;;;;;2621873;46;19988;31
2023/04/08 12:24:20;;;;;;;;;;;10.70;99.90;;;;;;2603980;54;20605;31
2023/04/08 12:26:55;;;;;;;11.85;10.35;;;10.60;99.90;;;;;;2622286;46;19938;31
2023/04/08 12:29:30;;;;;;;13.13;10.37;;;10.50;99.90;;;;;;2603671;54;20026;31
2023/04/08 12:32:07;;;;;;;12.57;10.50;;;10.60;99.90;;;;;;2603927;54;21790;31
2023/04/08 12:34:47;;;;;;;12.70;10.27;;;10.60;99.90;;;;;;2603575;54;20030;31
2023/04/08 12:37:25;;;;;;;13.77;10.95;;;10.50;99.90;;;;;;2609122;46;20818;31
2023/04/08 12:40:01;;;;;;;10.73;9.02;;;10.50;99.90;;;;;;2603833;54;20569;31
2023/04/08 12:42:40;;;;;;;13.65;10.98;;;10.50;99.90;;;;;;2622048;46;20027;31
2023/04/08 12:45:15;;;;;;;13.02;10.02;;;10.50;99.90;;;;;;2603559;54;20615;31
2023/04/08 12:47:53;;;;;;;11.57;9.00;;;10.50;99.90;;;;;;2603870;54;20027;31
2023/04/08 12:50:31;;;;;;;10.43;8.50;;;10.50;99.90;;;;;;2603602;54;20038;31
2023/04/08 12:53:07;;;;;;;11.40;9.32;;;10.50;99.90;;;;;;2621964;46;20100;31
2023/04/08 12:55:43;;;;;;;;;;;10.50;99.90;;;;;;2603820;54;20026;31
2023/04/08 12:58:22;;;;;;;11.38;9.68;;;10.50;99.90;;;;;;2622289;46;19934;31
2023/04/08 13:01:00;;;;;;;11.90;9.43;;;10.60;99.90;;;;;;2603031;54;20844;31
2023/04/08 13:03:37;;;;;;;12.77;10.60;;;10.50;99.90;;;;;;2602805;54;20875;31
2023/04/08 13:06:17;;;;;;;10.32;8.68;;;10.60;99.90;;;;;;2603553;54;20034;31
2023/04/08 13:08:55;;;;;;;14.02;8.52;;;10.60;99.90;;;;;;2603650;54;20100;31
2023/04/08 13:11:32;;;;;;;10.20;8.15;;;10.80;99.90;;;;;;2602455;54;20112;31
2023/04/08 13:14:12;;;;;;;9.85;8.60;;;10.90;99.90;;;;;;2603515;54;20767;31
2023/04/08 13:16:49;;;;;;;11.90;8.60;;;10.90;99.90;;;;;;2621832;46;20030;31
2023/04/08 13:19:27;;;;;;;10.83;8.03;;;10.90;99.90;;;;;;2621669;46;20679;31
2023/04/08 13:22:06;;;;;;;8.95;7.10;;;10.90;99.90;;;;;;2603509;54;20034;31
2023/04/08 13:24:43;;;;;;;10.10;8.32;;;10.90;99.90;;;;;;2603575;54;20916;31
2023/04/08 13:27:20;;;;;;;18.48;12.80;;;11.00;99.90;;;;;;2603722;54;20139;31
2023/04/08 13:29:55;;;;;;;12.40;9.18;;;11.00;99.90;;;;;;2621877;46;20045;31
2023/04/08 13:32:33;;;;;;;11.82;8.02;;;11.10;99.90;;;;;;2602992;54;20055;31
2023/04/08 13:35:10;;;;;;;12.23;8.70;;;11.10;99.90;;;;;;2602722;54;21499;31
2023/04/08 13:37:51;;;;;;;12.27;10.35;;;11.30;99.90;;;;;;2603438;54;20841;31
2023/04/08 13:42:58;;;;;;;12.60;9.50;;;11.40;99.90;;;;;;2603286;54;20049;31
2023/04/08 13:45:36;;;;;;;11.73;9.77;;;11.40;99.90;;;;;;2602812;54;20099;31
2023/04/08 13:48:12;;;;;;;12.65;9.93;;;11.40;99.90;;;;;;2602752;54;20089;31
2023/04/08 13:50:48;;;;;;;11.10;9.55;;;11.40;99.90;;;;;;2602650;54;20950;31
2023/04/08 13:53:26;;;;;;;;;;;11.50;99.90;;;;;;2603526;54;20034;31